createdAt,value
2017-12-25T00:00:59.282Z,8.90
2017-12-25T00:03:27.385Z,8.90
2017-12-25T00:05:55.504Z,8.90
2017-12-25T00:08:23.631Z,8.90
2017-12-25T00:10:51.732Z,8.90
2017-12-25T00:13:19.863Z,8.80
2017-12-25T00:15:47.950Z,8.80
2017-12-25T00:18:16.076Z,8.70
2017-12-25T00:20:44.182Z,8.70
2017-12-25T00:23:12.303Z,8.70
2017-12-25T00:25:40.609Z,8.70
2017-12-25T00:28:09.480Z,8.70
2017-12-25T00:30:37.569Z,8.70
2017-12-25T00:33:06.037Z,8.70
2017-12-25T00:35:34.142Z,8.70
2017-12-25T00:38:02.237Z,8.70
2017-12-25T00:40:30.606Z,8.70
2017-12-25T00:42:58.688Z,8.70
2017-12-25T00:45:26.831Z,8.70
2017-12-25T00:47:54.996Z,8.80
2017-12-25T00:50:23.891Z,8.80
2017-12-25T00:52:51.973Z,8.80
2017-12-25T00:55:20.061Z,8.80
2017-12-25T00:57:48.941Z,8.90
2017-12-25T01:00:17.252Z,8.80
2017-12-25T01:02:45.336Z,8.90
2017-12-25T01:05:13.441Z,9.00
2017-12-25T01:07:41.570Z,8.90
2017-12-25T01:10:09.649Z,8.90
2017-12-25T01:12:38.504Z,9.00
2017-12-25T01:15:06.567Z,9.00
2017-12-25T01:17:34.671Z,9.00
2017-12-25T01:20:03.543Z,9.00
2017-12-25T01:22:31.633Z,9.00
2017-12-25T01:24:59.728Z,9.00
2017-12-25T01:27:28.593Z,9.00
2017-12-25T01:29:56.774Z,9.00
2017-12-25T01:32:25.658Z,9.10
2017-12-25T01:34:53.745Z,9.10
2017-12-25T01:37:21.885Z,9.10
2017-12-25T01:39:50.013Z,9.10
2017-12-25T01:42:18.122Z,9.10
2017-12-25T01:44:46.208Z,9.10
2017-12-25T01:47:14.310Z,9.10
2017-12-25T01:49:42.393Z,9.10
2017-12-25T01:52:10.508Z,9.20
2017-12-25T01:54:38.813Z,9.10
2017-12-25T01:57:31.615Z,9.10
2017-12-25T02:00:20.401Z,9.20
2017-12-25T02:02:52.269Z,9.20
2017-12-25T02:08:36.425Z,9.20
2017-12-25T02:11:04.524Z,9.20
2017-12-25T02:13:38.254Z,9.20
2017-12-25T02:16:06.353Z,9.20
2017-12-25T02:18:34.449Z,9.10
2017-12-25T02:21:02.574Z,9.20
2017-12-25T02:23:31.458Z,9.10
2017-12-25T02:26:00.326Z,9.10
2017-12-25T02:28:28.653Z,9.10
2017-12-25T02:30:56.772Z,9.10
2017-12-25T02:33:24.860Z,9.10
2017-12-25T02:35:52.965Z,9.10
2017-12-25T02:38:21.833Z,9.10
2017-12-25T02:40:49.949Z,9.00
2017-12-25T02:43:18.052Z,9.00
2017-12-25T02:45:46.921Z,9.00
2017-12-25T02:48:15.026Z,9.00
2017-12-25T02:50:43.128Z,9.10
2017-12-25T02:53:12.021Z,9.10
2017-12-25T02:55:40.136Z,9.00
2017-12-25T02:58:09.001Z,9.00
2017-12-25T03:00:37.115Z,8.90
2017-12-25T03:03:05.540Z,8.90
2017-12-25T03:05:33.981Z,8.90
2017-12-25T03:08:02.082Z,8.90
2017-12-25T03:10:30.177Z,8.90
2017-12-25T03:12:58.298Z,8.80
2017-12-25T03:15:26.421Z,8.80
2017-12-25T03:17:54.501Z,8.80
2017-12-25T03:20:23.377Z,8.80
2017-12-25T03:22:51.525Z,8.70
2017-12-25T03:25:19.609Z,8.70
2017-12-25T03:27:47.949Z,8.70
2017-12-25T03:30:16.019Z,8.70
2017-12-25T03:32:44.119Z,8.70
2017-12-25T03:35:12.205Z,8.70
2017-12-25T03:37:40.345Z,8.70
2017-12-25T03:40:08.437Z,8.70
2017-12-25T03:42:36.517Z,8.80
2017-12-25T03:45:04.617Z,8.70
2017-12-25T03:47:32.765Z,8.80
2017-12-25T03:50:00.863Z,8.80
2017-12-25T03:52:28.969Z,8.80
2017-12-25T03:54:57.101Z,8.90
2017-12-25T03:57:25.218Z,8.90
2017-12-25T03:59:53.326Z,9.00
2017-12-25T04:02:21.959Z,8.90
2017-12-25T04:04:50.054Z,9.00
2017-12-25T04:07:18.210Z,9.00
2017-12-25T04:09:46.302Z,9.00
2017-12-25T04:12:15.187Z,9.00
2017-12-25T04:14:44.109Z,8.90
2017-12-25T04:17:12.969Z,9.00
2017-12-25T04:19:41.063Z,9.00
2017-12-25T04:22:09.153Z,9.00
2017-12-25T04:24:37.325Z,8.90
2017-12-25T04:27:05.453Z,8.90
2017-12-25T04:29:33.573Z,9.00
2017-12-25T04:32:01.660Z,8.90
2017-12-25T04:34:29.827Z,8.90
2017-12-25T04:36:58.747Z,9.00
2017-12-25T04:39:26.832Z,8.90
2017-12-25T04:41:54.924Z,8.90
2017-12-25T04:44:23.034Z,8.90
2017-12-25T04:46:51.125Z,8.90
2017-12-25T04:49:19.285Z,8.90
2017-12-25T04:51:47.382Z,8.90
2017-12-25T04:54:15.505Z,8.90
2017-12-25T04:56:44.373Z,8.90
2017-12-25T04:59:12.485Z,8.90
2017-12-25T05:01:41.353Z,8.90
2017-12-25T05:04:09.464Z,8.90
2017-12-25T05:06:37.637Z,8.90
2017-12-25T05:09:05.834Z,9.00
2017-12-25T05:11:34.722Z,9.00
2017-12-25T05:14:02.810Z,9.00
2017-12-25T05:16:30.902Z,9.00
2017-12-25T05:18:58.993Z,9.00
2017-12-25T05:21:27.132Z,9.00
2017-12-25T05:23:55.248Z,9.00
2017-12-25T05:26:23.338Z,9.00
2017-12-25T05:28:51.420Z,9.00
2017-12-25T05:31:19.572Z,9.10
2017-12-25T05:33:47.680Z,9.10
2017-12-25T05:36:15.777Z,9.00
2017-12-25T05:38:43.865Z,9.10
2017-12-25T05:41:11.981Z,9.10
2017-12-25T05:43:40.082Z,9.00
2017-12-25T05:46:08.205Z,9.00
2017-12-25T05:48:36.305Z,9.10
2017-12-25T05:51:04.410Z,9.10
2017-12-25T05:53:32.527Z,9.10
2017-12-25T05:56:00.622Z,9.10
2017-12-25T05:58:28.715Z,9.10
2017-12-25T06:00:56.833Z,9.00
2017-12-25T06:03:24.943Z,9.00
2017-12-25T06:05:53.043Z,9.00
2017-12-25T06:08:21.200Z,8.90
2017-12-25T06:10:49.287Z,8.90
2017-12-25T06:13:17.413Z,8.90
2017-12-25T06:15:45.524Z,8.90
2017-12-25T06:18:14.427Z,8.80
2017-12-25T06:20:42.561Z,8.80
2017-12-25T06:23:10.693Z,8.80
2017-12-25T06:25:38.790Z,8.70
2017-12-25T06:28:06.907Z,8.70
2017-12-25T06:30:38.711Z,8.70
2017-12-25T06:33:06.814Z,8.70
2017-12-25T06:35:34.908Z,8.60
2017-12-25T06:38:03.841Z,8.60
2017-12-25T06:40:31.929Z,8.60
2017-12-25T06:43:00.096Z,8.50
2017-12-25T06:45:28.190Z,8.50
2017-12-25T06:47:56.288Z,8.40
2017-12-25T06:50:25.250Z,8.40
2017-12-25T06:52:53.346Z,8.40
2017-12-25T06:55:21.653Z,8.40
2017-12-25T06:57:49.789Z,8.40
2017-12-25T07:00:17.910Z,8.40
2017-12-25T07:02:46.037Z,8.40
2017-12-25T07:05:14.417Z,8.40
2017-12-25T07:07:42.565Z,8.30
2017-12-25T07:10:10.830Z,8.40
2017-12-25T07:12:39.025Z,8.30
2017-12-25T07:15:07.106Z,8.30
2017-12-25T07:17:35.250Z,8.40
2017-12-25T07:20:03.440Z,8.30
2017-12-25T07:22:31.529Z,8.30
2017-12-25T07:24:59.706Z,8.40
2017-12-25T07:27:28.364Z,8.40
2017-12-25T07:29:56.457Z,8.40
2017-12-25T07:32:24.573Z,8.40
2017-12-25T07:34:52.696Z,8.40
2017-12-25T07:37:20.799Z,8.40
2017-12-25T07:39:49.667Z,8.40
2017-12-25T07:42:17.833Z,8.40
2017-12-25T07:44:45.928Z,8.40
2017-12-25T07:47:14.049Z,8.40
2017-12-25T07:49:42.150Z,8.50
2017-12-25T07:52:10.232Z,8.50
2017-12-25T07:54:38.538Z,8.50
2017-12-25T07:57:06.697Z,8.50
2017-12-25T07:59:35.564Z,8.40
2017-12-25T08:02:03.661Z,8.30
2017-12-25T08:04:31.756Z,8.30
2017-12-25T08:07:00.629Z,8.30
2017-12-25T08:09:28.744Z,8.30
2017-12-25T08:11:57.637Z,8.30
2017-12-25T08:14:25.748Z,8.30
2017-12-25T08:16:53.872Z,8.30
2017-12-25T08:19:21.954Z,8.30
2017-12-25T08:21:50.056Z,8.30
2017-12-25T08:24:18.132Z,8.40
2017-12-25T08:26:46.282Z,8.40
2017-12-25T08:29:14.388Z,8.40
2017-12-25T08:31:42.536Z,8.40
2017-12-25T08:34:10.630Z,8.40
2017-12-25T08:36:38.734Z,8.50
2017-12-25T08:39:06.861Z,8.50
2017-12-25T08:41:34.949Z,8.50
2017-12-25T08:44:03.817Z,8.60
2017-12-25T08:46:31.924Z,8.60
2017-12-25T08:49:00.073Z,8.60
2017-12-25T08:51:28.417Z,8.60
2017-12-25T08:53:57.332Z,8.70
2017-12-25T08:56:25.449Z,8.70
2017-12-25T08:58:54.064Z,8.70
2017-12-25T09:01:22.177Z,8.70
2017-12-25T09:03:51.192Z,8.70
2017-12-25T09:06:19.296Z,8.70
2017-12-25T09:08:47.393Z,8.80
2017-12-25T09:11:15.593Z,8.80
2017-12-25T09:13:43.725Z,8.80
2017-12-25T09:16:11.844Z,8.80
2017-12-25T09:18:39.978Z,8.80
2017-12-25T09:21:08.061Z,8.80
2017-12-25T09:23:36.494Z,8.80
2017-12-25T09:26:05.388Z,8.90
2017-12-25T09:28:34.300Z,8.90
2017-12-25T09:31:03.230Z,8.90
2017-12-25T09:33:31.338Z,8.90
2017-12-25T09:35:59.445Z,8.90
2017-12-25T09:38:27.539Z,8.90
2017-12-25T09:40:55.649Z,8.80
2017-12-25T09:43:23.823Z,8.80
2017-12-25T09:45:51.926Z,8.80
2017-12-25T09:48:20.055Z,8.80
2017-12-25T09:50:48.153Z,8.80
2017-12-25T09:53:16.252Z,8.80
2017-12-25T09:55:44.349Z,8.80
2017-12-25T09:58:12.493Z,8.90
2017-12-25T10:00:40.669Z,8.90
2017-12-25T10:03:09.018Z,8.90
2017-12-25T10:05:37.206Z,9.00
2017-12-25T10:08:05.293Z,8.90
2017-12-25T10:10:33.408Z,9.00
2017-12-25T10:13:01.522Z,9.00
2017-12-25T10:15:29.719Z,9.00
2017-12-25T10:17:57.874Z,9.10
2017-12-25T10:20:26.071Z,9.00
2017-12-25T10:22:54.202Z,9.10
2017-12-25T10:25:22.342Z,9.10
2017-12-25T10:27:50.493Z,9.10
2017-12-25T10:30:18.597Z,9.10
2017-12-25T10:32:46.725Z,9.10
2017-12-25T10:35:14.897Z,9.20
2017-12-25T10:37:43.009Z,9.20
2017-12-25T10:40:11.542Z,9.20
2017-12-25T10:42:39.684Z,9.10
2017-12-25T10:45:07.813Z,9.10
2017-12-25T10:47:36.018Z,9.10
2017-12-25T10:50:04.115Z,9.10
2017-12-25T10:52:32.213Z,9.10
2017-12-25T10:55:00.295Z,9.10
2017-12-25T10:57:28.435Z,9.10
2017-12-25T10:59:56.514Z,9.10
2017-12-25T11:02:24.637Z,9.10
2017-12-25T11:04:52.933Z,9.10
2017-12-25T11:07:21.873Z,9.00
2017-12-25T11:09:50.026Z,9.00
2017-12-25T11:12:18.158Z,9.00
2017-12-25T11:14:46.370Z,9.00
2017-12-25T11:17:14.521Z,9.00
2017-12-25T11:19:42.638Z,8.90
2017-12-25T11:22:10.731Z,8.90
2017-12-25T11:24:38.964Z,8.90
2017-12-25T11:27:07.060Z,8.80
2017-12-25T11:29:35.165Z,8.90
2017-12-25T11:32:03.268Z,8.90
2017-12-25T11:34:32.177Z,8.90
2017-12-25T11:37:01.047Z,8.90
2017-12-25T11:39:29.128Z,8.90
2017-12-25T11:41:57.225Z,8.90
2017-12-25T11:44:25.332Z,8.90
2017-12-25T11:46:54.241Z,8.90
2017-12-25T11:49:23.115Z,8.90
2017-12-25T11:51:51.222Z,8.90
2017-12-25T11:54:20.113Z,9.00
2017-12-25T11:56:48.207Z,8.90
2017-12-25T11:59:16.315Z,8.90
2017-12-25T12:01:45.352Z,8.90
2017-12-25T12:04:13.441Z,9.00
2017-12-25T12:06:41.578Z,9.00
2017-12-25T12:09:09.672Z,9.00
2017-12-25T12:11:37.769Z,9.00
2017-12-25T12:14:05.896Z,9.00
2017-12-25T12:16:34.006Z,9.00
2017-12-25T12:19:02.153Z,9.00
2017-12-25T12:21:30.416Z,9.00
2017-12-25T12:23:59.364Z,9.10
2017-12-25T12:26:27.530Z,9.00
2017-12-25T12:28:56.565Z,9.10
2017-12-25T12:31:24.657Z,9.10
2017-12-25T12:33:53.525Z,9.10
2017-12-25T12:36:21.653Z,9.10
2017-12-25T12:38:49.799Z,9.10
2017-12-25T12:41:17.867Z,9.10
2017-12-25T12:43:45.992Z,9.10
2017-12-25T12:46:14.861Z,9.00
2017-12-25T12:48:42.961Z,9.00
2017-12-25T12:51:11.138Z,9.00
2017-12-25T12:53:39.276Z,8.90
2017-12-25T12:56:07.504Z,8.90
2017-12-25T12:58:35.590Z,8.90
2017-12-25T13:01:03.740Z,8.90
2017-12-25T13:03:32.819Z,8.90
2017-12-25T13:06:01.677Z,8.80
2017-12-25T13:08:29.828Z,8.80
2017-12-25T13:10:57.942Z,8.70
2017-12-25T13:13:26.145Z,8.70
2017-12-25T13:15:54.378Z,8.70
2017-12-25T13:18:22.427Z,8.70
2017-12-25T13:20:50.526Z,8.70
2017-12-25T13:23:19.633Z,8.70
2017-12-25T13:25:48.489Z,8.80
2017-12-25T13:28:16.598Z,8.80
2017-12-25T13:30:44.777Z,8.80
2017-12-25T13:33:12.912Z,8.80
2017-12-25T13:35:41.016Z,8.80
2017-12-25T13:38:09.115Z,8.80
2017-12-25T13:40:37.208Z,8.80
2017-12-25T13:43:05.314Z,8.80
2017-12-25T13:45:33.412Z,8.80
2017-12-25T13:48:02.309Z,8.80
2017-12-25T13:50:30.409Z,8.80
2017-12-25T13:52:58.511Z,8.80
2017-12-25T13:55:26.733Z,8.70
2017-12-25T13:57:54.838Z,8.80
2017-12-25T14:00:22.977Z,8.80
2017-12-25T14:02:51.174Z,8.80
2017-12-25T14:05:19.262Z,8.70
2017-12-25T14:07:47.406Z,8.70
2017-12-25T14:10:15.570Z,8.70
2017-12-25T14:12:44.524Z,8.60
2017-12-25T14:15:12.732Z,8.60
2017-12-25T14:17:40.842Z,8.60
2017-12-25T14:20:08.965Z,8.60
2017-12-25T14:22:37.082Z,8.60
2017-12-25T14:25:05.219Z,8.60
2017-12-25T14:27:33.318Z,8.60
2017-12-25T14:30:01.449Z,8.60
2017-12-25T14:32:29.564Z,8.60
2017-12-25T14:34:57.699Z,8.60
2017-12-25T14:37:25.855Z,8.50
2017-12-25T14:39:54.001Z,8.50
2017-12-25T14:42:22.112Z,8.50
2017-12-25T14:44:50.210Z,8.50
2017-12-25T14:47:18.316Z,8.50
2017-12-25T14:49:46.424Z,8.50
2017-12-25T14:52:14.581Z,8.50
2017-12-25T14:54:42.762Z,8.50
2017-12-25T14:57:10.888Z,8.50
2017-12-25T14:59:38.987Z,8.50
2017-12-25T15:02:07.882Z,8.50
2017-12-25T15:04:36.004Z,8.50
2017-12-25T15:07:04.088Z,8.50
2017-12-25T15:09:32.246Z,8.50
2017-12-25T15:12:01.166Z,8.50
2017-12-25T15:14:29.314Z,8.50
2017-12-25T15:16:57.406Z,8.50
2017-12-25T15:19:26.320Z,8.40
2017-12-25T15:21:54.403Z,8.50
2017-12-25T15:24:23.276Z,8.40
2017-12-25T15:26:51.357Z,8.50
2017-12-25T15:29:19.617Z,8.50
2017-12-25T15:31:47.815Z,8.50
2017-12-25T15:34:15.889Z,8.50
2017-12-25T15:36:44.867Z,8.50
2017-12-25T15:39:13.044Z,8.50
2017-12-25T15:41:41.893Z,8.50
2017-12-25T15:44:09.985Z,8.50
2017-12-25T15:46:38.103Z,8.50
2017-12-25T15:49:06.960Z,8.50
2017-12-25T15:51:35.041Z,8.50
2017-12-25T15:54:03.979Z,8.40
2017-12-25T15:56:32.107Z,8.40
2017-12-25T15:59:00.206Z,8.40
2017-12-25T16:01:28.287Z,8.40
2017-12-25T16:04:00.342Z,8.40
2017-12-25T16:06:28.443Z,8.40
2017-12-25T16:08:56.557Z,8.30
2017-12-25T16:11:24.668Z,8.30
2017-12-25T16:13:53.551Z,8.30
2017-12-25T16:16:21.682Z,8.30
2017-12-25T16:18:50.070Z,8.30
2017-12-25T16:21:18.189Z,8.30
2017-12-25T16:23:46.274Z,8.30
2017-12-25T16:26:14.424Z,8.30
2017-12-25T16:28:42.514Z,8.30
2017-12-25T16:31:10.628Z,8.30
2017-12-25T16:33:38.735Z,8.30
2017-12-25T16:36:06.841Z,8.30
2017-12-25T16:38:34.930Z,8.30
2017-12-25T16:41:03.791Z,8.30
2017-12-25T16:43:31.885Z,8.30
2017-12-25T16:46:00.007Z,8.30
2017-12-25T16:48:28.888Z,8.20
2017-12-25T16:50:57.014Z,8.20
2017-12-25T16:53:25.128Z,8.20
2017-12-25T16:55:53.217Z,8.20
2017-12-25T16:58:21.313Z,8.20
2017-12-25T17:00:49.546Z,8.20
2017-12-25T17:03:18.397Z,8.20
2017-12-25T17:05:46.508Z,8.20
2017-12-25T17:08:15.371Z,8.20
2017-12-25T17:10:43.512Z,8.20
2017-12-25T17:13:11.578Z,8.20
2017-12-25T17:15:41.261Z,8.20
2017-12-25T17:18:09.366Z,8.20
2017-12-25T17:20:37.486Z,8.20
2017-12-25T17:23:05.606Z,8.20
2017-12-25T17:25:33.691Z,8.20
2017-12-25T17:28:01.815Z,8.10
2017-12-25T17:30:29.919Z,8.10
2017-12-25T17:32:58.037Z,8.10
2017-12-25T17:35:26.187Z,8.10
2017-12-25T17:37:55.128Z,8.00
2017-12-25T17:40:23.257Z,8.00
2017-12-25T17:42:51.410Z,8.00
2017-12-25T17:45:19.536Z,8.00
2017-12-25T17:47:48.433Z,8.00
2017-12-25T17:50:17.340Z,8.00
2017-12-25T17:52:46.229Z,8.00
2017-12-25T17:55:14.420Z,8.00
2017-12-25T17:57:42.506Z,8.00
2017-12-25T18:00:11.581Z,8.00
2017-12-25T18:02:39.717Z,8.00
2017-12-25T18:05:08.742Z,8.00
2017-12-25T18:07:36.849Z,8.00
2017-12-25T18:10:04.954Z,8.00
2017-12-25T18:12:33.452Z,8.00
2017-12-25T18:15:01.587Z,7.90
2017-12-25T18:17:29.665Z,8.00
2017-12-25T18:19:57.781Z,7.90
2017-12-25T18:22:25.891Z,7.90
2017-12-25T18:24:54.010Z,7.90
2017-12-25T18:27:22.898Z,7.90
2017-12-25T18:29:51.809Z,7.90
2017-12-25T18:32:19.937Z,7.90
2017-12-25T18:34:48.037Z,7.90
2017-12-25T18:37:16.132Z,7.90
2017-12-25T18:39:44.286Z,7.90
2017-12-25T18:42:12.373Z,7.90
2017-12-25T18:44:40.465Z,7.90
2017-12-25T18:47:08.566Z,7.90
2017-12-25T18:49:36.697Z,7.90
2017-12-25T18:52:04.806Z,7.90
2017-12-25T18:54:32.973Z,7.80
2017-12-25T18:57:01.101Z,7.80
2017-12-25T18:59:29.245Z,7.80
2017-12-25T19:01:57.449Z,7.80
2017-12-25T19:04:25.550Z,7.70
2017-12-25T19:06:53.747Z,7.70
2017-12-25T19:09:21.936Z,7.70
2017-12-25T19:11:50.051Z,7.70
2017-12-25T19:14:18.247Z,7.70
2017-12-25T19:16:46.345Z,7.70
2017-12-25T19:19:14.469Z,7.70
2017-12-25T19:21:42.806Z,7.70
2017-12-25T19:24:10.889Z,7.60
2017-12-25T19:26:38.997Z,7.60
2017-12-25T19:29:07.097Z,7.60
2017-12-25T19:31:36.167Z,7.60
2017-12-25T19:34:04.289Z,7.60
2017-12-25T19:36:32.398Z,7.60
2017-12-25T19:39:00.476Z,7.60
2017-12-25T19:41:28.580Z,7.60
2017-12-25T19:43:57.455Z,7.60
2017-12-25T19:46:25.579Z,7.60
2017-12-25T19:48:53.678Z,7.60
2017-12-25T19:51:21.770Z,7.50
2017-12-25T19:53:49.872Z,7.50
2017-12-25T19:56:18.067Z,7.50
2017-12-25T19:58:46.190Z,7.60
2017-12-25T20:01:14.324Z,7.50
2017-12-25T20:03:42.470Z,7.50
2017-12-25T20:06:10.578Z,7.50
2017-12-25T20:08:38.772Z,7.50
2017-12-25T20:11:06.865Z,7.50
2017-12-25T20:13:34.962Z,7.40
2017-12-25T20:16:03.057Z,7.40
2017-12-25T20:18:31.266Z,7.40
2017-12-25T20:20:59.354Z,7.40
2017-12-25T20:23:28.220Z,7.40
2017-12-25T20:25:56.322Z,7.40
2017-12-25T20:28:24.671Z,7.40
2017-12-25T20:30:52.786Z,7.40
2017-12-25T20:33:20.906Z,7.40
2017-12-25T20:35:49.778Z,7.30
2017-12-25T20:38:17.883Z,7.30
2017-12-25T20:40:46.774Z,7.30
2017-12-25T20:43:14.886Z,7.30
2017-12-25T20:45:43.005Z,7.30
2017-12-25T20:48:11.367Z,7.30
2017-12-25T20:50:39.458Z,7.30
2017-12-25T20:53:07.796Z,7.40
2017-12-25T20:55:35.963Z,7.40
2017-12-25T20:58:04.080Z,7.40
2017-12-25T21:00:32.289Z,7.40
2017-12-25T21:03:00.417Z,7.40
2017-12-25T21:05:28.546Z,7.40
2017-12-25T21:07:57.417Z,7.40
2017-12-25T21:10:25.525Z,7.40
2017-12-25T21:12:54.425Z,7.40
2017-12-25T21:15:23.321Z,7.40
2017-12-25T21:17:51.649Z,7.40
2017-12-25T21:20:19.753Z,7.40
2017-12-25T21:22:47.877Z,7.40
2017-12-25T21:25:15.987Z,7.40
2017-12-25T21:27:44.856Z,7.40
2017-12-25T21:30:12.993Z,7.40
2017-12-25T21:32:41.108Z,7.40
2017-12-25T21:35:09.194Z,7.40
2017-12-25T21:37:37.405Z,7.40
2017-12-25T21:40:05.568Z,7.40
2017-12-25T21:42:33.708Z,7.40
2017-12-25T21:45:02.027Z,7.40
2017-12-25T21:47:30.205Z,7.40
2017-12-25T21:49:58.322Z,7.40
2017-12-25T21:52:26.458Z,7.40
2017-12-25T21:54:54.570Z,7.40
2017-12-25T21:57:22.662Z,7.40
2017-12-25T21:59:50.793Z,7.30
2017-12-25T22:02:18.894Z,7.30
2017-12-25T22:04:47.002Z,7.30
2017-12-25T22:07:33.738Z,7.30
2017-12-25T22:10:01.885Z,7.30
2017-12-25T22:12:29.966Z,7.30
2017-12-25T22:14:58.092Z,7.30
2017-12-25T22:17:26.193Z,7.30
2017-12-25T22:19:54.329Z,7.30
2017-12-25T22:22:22.440Z,7.30
2017-12-25T22:24:50.550Z,7.30
2017-12-25T22:27:18.645Z,7.20
2017-12-25T22:29:47.614Z,7.20
2017-12-25T22:32:15.769Z,7.20
2017-12-25T22:34:43.979Z,7.20
2017-12-25T22:37:12.137Z,7.20
2017-12-25T22:39:40.294Z,7.20
2017-12-25T22:42:08.422Z,7.20
2017-12-25T22:44:36.535Z,7.20
2017-12-25T22:47:04.649Z,7.10
2017-12-25T22:49:32.986Z,7.10
2017-12-25T22:52:01.100Z,7.10
2017-12-25T22:54:29.526Z,7.10
2017-12-25T22:56:58.483Z,7.00
2017-12-25T22:59:26.627Z,7.00
2017-12-25T23:01:54.740Z,7.00
2017-12-25T23:04:22.854Z,7.00
2017-12-25T23:06:50.972Z,7.00
2017-12-25T23:09:19.088Z,7.00
2017-12-25T23:11:47.287Z,7.00
2017-12-25T23:14:15.413Z,7.00
2017-12-25T23:16:44.272Z,7.00
2017-12-25T23:19:12.373Z,7.00
2017-12-25T23:21:40.467Z,7.00
2017-12-25T23:24:08.566Z,7.00
2017-12-25T23:26:37.427Z,6.90
2017-12-25T23:29:05.606Z,6.90
2017-12-25T23:31:34.035Z,6.90
2017-12-25T23:34:02.128Z,6.90
2017-12-25T23:36:30.988Z,6.90
2017-12-25T23:38:59.130Z,6.80
2017-12-25T23:41:27.262Z,6.80
2017-12-25T23:43:55.412Z,6.80
2017-12-25T23:46:23.508Z,6.80
2017-12-25T23:48:51.612Z,6.80
2017-12-25T23:51:19.698Z,6.80
2017-12-25T23:53:47.825Z,6.80
2017-12-25T23:56:16.689Z,6.80
2017-12-25T23:58:44.805Z,6.80
